<?xml version='1.0' encoding='UTF-8'?><gpx version="1.1" creator="JPX - https://github.com/jenetics/jpx" xmlns="http://www.topografix.com/GPX/1/1"><trk><trkseg><trkpt lat="45.56132882297576" lon="11.183132523269192"><ele>739.9999999999999</ele><time>2026-04-06T09:14:43Z</time></trkpt><trkpt lat="45.56139389149631" lon="11.183149460713551"><ele>740.0</ele><time>2026-04-06T09:14:52Z</time></trkpt><trkpt lat="45.56145871444104" lon="11.183140338213638"><ele>740.0</ele><time>2026-04-06T09:14:59Z</time></trkpt><trkpt lat="45.561524261483065" lon="11.183149317583434"><ele>740.0</ele><time>2026-04-06T09:15:06.999Z</time></trkpt><trkpt lat="45.561595081294335" lon="11.183162316118393"><ele>740.0</ele><time>2026-04-06T09:15:15.999Z</time></trkpt><trkpt lat="45.561668010692294" lon="11.183170893179446"><ele>739.9999999999999</ele><time>2026-04-06T09:15:24.999Z</time></trkpt><trkpt lat="45.56172920704242" lon="11.183194105594046"><ele>740.0</ele><time>2026-04-06T09:15:31.999Z</time></trkpt><trkpt lat="45.56179865883174" lon="11.183216364583878"><ele>739.7142857142857</ele><time>2026-04-06T09:15:40.999Z</time></trkpt><trkpt lat="45.56186171814907" lon="11.183243215571787"><ele>739.4285714285714</ele><time>2026-04-06T09:15:51.999Z</time></trkpt><trkpt lat="45.56191936606016" lon="11.183288789346049"><ele>739.1428571428571</ele><time>2026-04-06T09:16:03.999Z</time></trkpt><trkpt lat="45.56198143160866" lon="11.183345109208261"><ele>738.8571428571429</ele><time>2026-04-06T09:16:25.999Z</time></trkpt><trkpt lat="45.56204882021478" lon="11.183368577609091"><ele>738.5714285714286</ele><time>2026-04-06T09:16:33.998Z</time></trkpt><trkpt lat="45.56211503415583" lon="11.183381011813593"><ele>738.2857142857142</ele><time>2026-04-06T09:16:41.997Z</time></trkpt><trkpt lat="45.56218266360441" lon="11.183403868959763"><ele>738.0</ele><time>2026-04-06T09:16:48.998Z</time></trkpt><trkpt lat="45.56225370583748" lon="11.183432051317062"><ele>740.5714285714286</ele><time>2026-04-06T09:16:58.998Z</time></trkpt><trkpt lat="45.562316171480006" lon="11.183452629580335"><ele>743.1428571428571</ele><time>2026-04-06T09:17:06.998Z</time></trkpt><trkpt lat="45.562380628123776" lon="11.183477783680184"><ele>745.7142857142858</ele><time>2026-04-06T09:17:23.999Z</time></trkpt><trkpt lat="45.56245647117983" lon="11.183492623796255"><ele>748.2857142857142</ele><time>2026-04-06T09:17:31.999Z</time></trkpt><trkpt lat="45.56251973395534" lon="11.183503712085876"><ele>750.8571428571429</ele><time>2026-04-06T09:17:39.999Z</time></trkpt><trkpt lat="45.56257986139048" lon="11.183543263733506"><ele>753.4285714285714</ele><time>2026-04-06T09:17:45.999Z</time></trkpt><trkpt lat="45.5626250392711" lon="11.183613231614018"><ele>756.0</ele><time>2026-04-06T09:17:53.999Z</time></trkpt><trkpt lat="45.56265181778214" lon="11.183706501210862"><ele>756.0</ele><time>2026-04-06T09:18:01.999Z</time></trkpt><trkpt lat="45.562705824506345" lon="11.183774591522402"><ele>756.0</ele><time>2026-04-06T09:18:10.999Z</time></trkpt><trkpt lat="45.56275301480223" lon="11.183840331966032"><ele>756.0</ele><time>2026-04-06T09:18:17.999Z</time></trkpt><trkpt lat="45.56281190909395" lon="11.183901864820806"><ele>756.0</ele><time>2026-04-06T09:18:29.999Z</time></trkpt><trkpt lat="45.562849345009596" lon="11.183983605354165"><ele>756.0</ele><time>2026-04-06T09:18:37.999Z</time></trkpt><trkpt lat="45.56290301103462" lon="11.184044784202356"><ele>756.0</ele><time>2026-04-06T09:18:43.999Z</time></trkpt><trkpt lat="45.56294121441198" lon="11.184219082264445"><ele>756.7142857142857</ele><time>2026-04-06T09:19:06.999Z</time></trkpt><trkpt lat="45.56294091264149" lon="11.184309160740638"><ele>757.4285714285714</ele><time>2026-04-06T09:19:13.999Z</time></trkpt><trkpt lat="45.56295804955785" lon="11.184405903270138"><ele>758.1428571428571</ele><time>2026-04-06T09:19:34Z</time></trkpt><trkpt lat="45.562949554436" lon="11.184508443897121"><ele>758.8571428571429</ele><time>2026-04-06T09:19:43Z</time></trkpt><trkpt lat="45.562924524971926" lon="11.184599283800232"><ele>759.5714285714286</ele><time>2026-04-06T09:19:51Z</time></trkpt><trkpt lat="45.56289162707448" lon="11.184696059320578"><ele>760.2857142857142</ele><time>2026-04-06T09:19:58Z</time></trkpt><trkpt lat="45.56286463171064" lon="11.184796162076463"><ele>761.0</ele><time>2026-04-06T09:20:05Z</time></trkpt><trkpt lat="45.56283132187871" lon="11.18487855900333"><ele>760.9999999999999</ele><time>2026-04-06T09:20:16Z</time></trkpt><trkpt lat="45.5627988309568" lon="11.184963599677044"><ele>761.0</ele><time>2026-04-06T09:20:24Z</time></trkpt><trkpt lat="45.5627603712648" lon="11.185045304604287"><ele>761.0</ele><time>2026-04-06T09:20:32Z</time></trkpt><trkpt lat="45.56272833129217" lon="11.185134139879725"><ele>761.0</ele><time>2026-04-06T09:20:44Z</time></trkpt><trkpt lat="45.562708897826084" lon="11.185231298402169"><ele>761.0</ele><time>2026-04-06T09:20:52Z</time></trkpt><trkpt lat="45.56272234397076" lon="11.185330525556038"><ele>760.9999999999999</ele><time>2026-04-06T09:20:59Z</time></trkpt><trkpt lat="45.56273665463677" lon="11.185425922322407"><ele>761.0</ele><time>2026-04-06T09:21:13Z</time></trkpt><trkpt lat="45.562757699468406" lon="11.185511680886465"><ele>760.9999999999999</ele><time>2026-04-06T09:21:22Z</time></trkpt><trkpt lat="45.562805168426976" lon="11.185585315870735"><ele>761.0</ele><time>2026-04-06T09:21:31Z</time></trkpt><trkpt lat="45.56285034509743" lon="11.185653912992011"><ele>761.0</ele><time>2026-04-06T09:21:42Z</time></trkpt><trkpt lat="45.56287579335898" lon="11.18573980893865"><ele>761.0</ele><time>2026-04-06T09:21:50Z</time></trkpt><trkpt lat="45.562921054615344" lon="11.185808548792107"><ele>761.0</ele><time>2026-04-06T09:21:58Z</time></trkpt><trkpt lat="45.56297079225236" lon="11.185874781909863"><ele>760.9999999999999</ele><time>2026-04-06T09:22:18Z</time></trkpt><trkpt lat="45.5630085526412" lon="11.185947816965411"><ele>761.0</ele><time>2026-04-06T09:22:26Z</time></trkpt><trkpt lat="45.563057688619416" lon="11.18602429715433"><ele>763.4285714285713</ele><time>2026-04-06T09:22:36Z</time></trkpt><trkpt lat="45.563106600696436" lon="11.186091049101066"><ele>765.8571428571429</ele><time>2026-04-06T09:23:36Z</time></trkpt><trkpt lat="45.56314592586836" lon="11.186175856609132"><ele>768.2857142857142</ele><time>2026-04-06T09:23:46Z</time></trkpt><trkpt lat="45.56319570340337" lon="11.186241058179627"><ele>770.7142857142857</ele><time>2026-04-06T09:23:54Z</time></trkpt><trkpt lat="45.56324334284766" lon="11.186322293452726"><ele>773.1428571428571</ele><time>2026-04-06T09:24:04Z</time></trkpt><trkpt lat="45.56328842326867" lon="11.186397919614361"><ele>775.5714285714286</ele><time>2026-04-06T09:24:13Z</time></trkpt><trkpt lat="45.56334027526039" lon="11.186465752278847"><ele>778.0</ele><time>2026-04-06T09:24:23Z</time></trkpt><trkpt lat="45.56338973376692" lon="11.186528624252588"><ele>778.0</ele><time>2026-04-06T09:24:33Z</time></trkpt><trkpt lat="45.56343275810167" lon="11.186605867061473"><ele>778.0</ele><time>2026-04-06T09:24:43Z</time></trkpt><trkpt lat="45.563464545506946" lon="11.186685585530453"><ele>778.0</ele><time>2026-04-06T09:24:52Z</time></trkpt><trkpt lat="45.563504650635025" lon="11.186773813059128"><ele>778.0</ele><time>2026-04-06T09:25:03Z</time></trkpt><trkpt lat="45.56356053411024" lon="11.186830653707384"><ele>778.0</ele><time>2026-04-06T09:25:12Z</time></trkpt><trkpt lat="45.56362147686765" lon="11.186854939757323"><ele>778.0</ele><time>2026-04-06T09:25:26Z</time></trkpt><trkpt lat="45.563684170570056" lon="11.186896622687929"><ele>778.0</ele><time>2026-04-06T09:25:35Z</time></trkpt><trkpt lat="45.56374062669072" lon="11.186943036904593"><ele>778.5714285714286</ele><time>2026-04-06T09:25:43Z</time></trkpt><trkpt lat="45.56379706295869" lon="11.186985481858903"><ele>779.1428571428571</ele><time>2026-04-06T09:25:53Z</time></trkpt><trkpt lat="45.56384405050305" lon="11.187046136262312"><ele>779.7142857142857</ele><time>2026-04-06T09:26:02Z</time></trkpt><trkpt lat="45.56389150713231" lon="11.187114185014694"><ele>780.2857142857142</ele><time>2026-04-06T09:26:10Z</time></trkpt><trkpt lat="45.56393862539363" lon="11.187176584822494"><ele>780.8571428571429</ele><time>2026-04-06T09:26:19Z</time></trkpt><trkpt lat="45.5639875187909" lon="11.187235389919389"><ele>781.4285714285713</ele><time>2026-04-06T09:26:27Z</time></trkpt><trkpt lat="45.56402206407131" lon="11.187312105051266"><ele>782.0</ele><time>2026-04-06T09:26:34Z</time></trkpt><trkpt lat="45.56404869430647" lon="11.1874020337809"><ele>781.9999999999999</ele><time>2026-04-06T09:26:42Z</time></trkpt><trkpt lat="45.56409051705429" lon="11.187482770293837"><ele>782.0</ele><time>2026-04-06T09:26:51Z</time></trkpt><trkpt lat="45.56413910351796" lon="11.187546407604087"><ele>782.0</ele><time>2026-04-06T09:26:58Z</time></trkpt><trkpt lat="45.56417199384011" lon="11.187626553294692"><ele>782.0</ele><time>2026-04-06T09:27:13.999Z</time></trkpt><trkpt lat="45.564220291460835" lon="11.18769454208283"><ele>782.0</ele><time>2026-04-06T09:27:25Z</time></trkpt><trkpt lat="45.564265251720045" lon="11.187766479165397"><ele>781.9999999999999</ele><time>2026-04-06T09:27:36Z</time></trkpt><trkpt lat="45.56428178712547" lon="11.187860414856637"><ele>782.0</ele><time>2026-04-06T09:28:26Z</time></trkpt><trkpt lat="45.56433598915337" lon="11.187912935372598"><ele>781.9999999999999</ele><time>2026-04-06T09:28:33Z</time></trkpt><trkpt lat="45.56439302450199" lon="11.187952113409978"><ele>782.0</ele><time>2026-04-06T09:28:39Z</time></trkpt><trkpt lat="45.56445190648766" lon="11.187998296164734"><ele>782.0</ele><time>2026-04-06T09:28:45Z</time></trkpt><trkpt lat="45.56450821954893" lon="11.188040992004971"><ele>782.0</ele><time>2026-04-06T09:28:53Z</time></trkpt><trkpt lat="45.564568036354885" lon="11.188073457133028"><ele>782.0</ele><time>2026-04-06T09:29:11Z</time></trkpt><trkpt lat="45.56463898147954" lon="11.188101111633955"><ele>781.9999999999999</ele><time>2026-04-06T09:29:18Z</time></trkpt><trkpt lat="45.564705491604194" lon="11.188147745858434"><ele>782.0</ele><time>2026-04-06T09:29:31Z</time></trkpt><trkpt lat="45.56475190692759" lon="11.188216224341797"><ele>783.1428571428571</ele><time>2026-04-06T09:29:39Z</time></trkpt><trkpt lat="45.56479601833456" lon="11.188290685754604"><ele>784.2857142857142</ele><time>2026-04-06T09:29:49Z</time></trkpt><trkpt lat="45.56485413099489" lon="11.188333853697852"><ele>785.4285714285713</ele><time>2026-04-06T09:29:57Z</time></trkpt><trkpt lat="45.56489834329863" lon="11.188411326587554"><ele>786.5714285714286</ele><time>2026-04-06T09:30:06Z</time></trkpt><trkpt lat="45.564935015954156" lon="11.188498907522963"><ele>787.7142857142858</ele><time>2026-04-06T09:30:15Z</time></trkpt><trkpt lat="45.56498741424902" lon="11.188551760842198"><ele>788.8571428571428</ele><time>2026-04-06T09:30:22Z</time></trkpt><trkpt lat="45.56503081936623" lon="11.188624914283652"><ele>790.0</ele><time>2026-04-06T09:30:30Z</time></trkpt><trkpt lat="45.56507436479759" lon="11.188700712808481"><ele>790.0</ele><time>2026-04-06T09:30:39Z</time></trkpt><trkpt lat="45.56510570034627" lon="11.188785247720173"><ele>790.0</ele><time>2026-04-06T09:30:48Z</time></trkpt><trkpt lat="45.56514649141605" lon="11.188862774741843"><ele>790.0</ele><time>2026-04-06T09:30:57Z</time></trkpt><trkpt lat="45.56519978194589" lon="11.188918457982574"><ele>790.0</ele><time>2026-04-06T09:31:05Z</time></trkpt><trkpt lat="45.56525664572663" lon="11.188980250768044"><ele>790.0</ele><time>2026-04-06T09:31:14Z</time></trkpt><trkpt lat="45.56532169808056" lon="11.18900675802819"><ele>790.0</ele><time>2026-04-06T09:31:29Z</time></trkpt><trkpt lat="45.565368224903715" lon="11.18908500729124"><ele>790.0</ele><time>2026-04-06T09:31:37Z</time></trkpt><trkpt lat="45.56540576185109" lon="11.189167072651019"><ele>789.8571428571428</ele><time>2026-04-06T09:31:44Z</time></trkpt><trkpt lat="45.5654633211746" lon="11.189218943914257"><ele>789.7142857142858</ele><time>2026-04-06T09:31:54Z</time></trkpt><trkpt lat="45.565520425347664" lon="11.18930486249363"><ele>789.5714285714286</ele><time>2026-04-06T09:32:01Z</time></trkpt><trkpt lat="45.56557762330689" lon="11.189354394407353"><ele>789.4285714285713</ele><time>2026-04-06T09:32:10Z</time></trkpt><trkpt lat="45.565629710866624" lon="11.189409696638013"><ele>789.2857142857142</ele><time>2026-04-06T09:32:17Z</time></trkpt><trkpt lat="45.565647309369226" lon="11.189511254174194"><ele>789.1428571428571</ele><time>2026-04-06T09:32:26Z</time></trkpt><trkpt lat="45.565708888156834" lon="11.18954902287935"><ele>789.0</ele><time>2026-04-06T09:32:34Z</time></trkpt><trkpt lat="45.565756547596415" lon="11.189617328430382"><ele>788.9999999999999</ele><time>2026-04-06T09:32:41Z</time></trkpt><trkpt lat="45.565821303174666" lon="11.189659651883925"><ele>789.0</ele><time>2026-04-06T09:32:48Z</time></trkpt><trkpt lat="45.56586287763993" lon="11.189730691971906"><ele>789.0</ele><time>2026-04-06T09:32:55Z</time></trkpt><trkpt lat="45.56591205230962" lon="11.189803695885542"><ele>789.0</ele><time>2026-04-06T09:33:04Z</time></trkpt><trkpt lat="45.565947319180204" lon="11.189885326098306"><ele>789.0</ele><time>2026-04-06T09:33:13Z</time></trkpt><trkpt lat="45.56600233636513" lon="11.18995122994343"><ele>788.9999999999999</ele><time>2026-04-06T09:33:22Z</time></trkpt><trkpt lat="45.56603959690558" lon="11.190033342606592"><ele>789.0</ele><time>2026-04-06T09:33:33Z</time></trkpt><trkpt lat="45.56606167910464" lon="11.190124195264307"><ele>786.9999999999999</ele><time>2026-04-06T09:33:42Z</time></trkpt><trkpt lat="45.56609189137452" lon="11.190203601899961"><ele>785.0</ele><time>2026-04-06T09:33:50Z</time></trkpt><trkpt lat="45.56615913794925" lon="11.190196114586243"><ele>783.0</ele><time>2026-04-06T09:34:22.999Z</time></trkpt><trkpt lat="45.56621675172254" lon="11.190132276640844"><ele>781.0</ele><time>2026-04-06T09:34:33.999Z</time></trkpt><trkpt lat="45.56626529833284" lon="11.19007130050551"><ele>779.0</ele><time>2026-04-06T09:34:41.999Z</time></trkpt><trkpt lat="45.56631506101947" lon="11.190006818827865"><ele>776.9999999999999</ele><time>2026-04-06T09:34:50.999Z</time></trkpt><trkpt lat="45.56637256898537" lon="11.189958893593541"><ele>775.0</ele><time>2026-04-06T09:34:58.999Z</time></trkpt><trkpt lat="45.566419458784395" lon="11.189878195316625"><ele>771.0</ele><time>2026-04-06T09:35:05.999Z</time></trkpt><trkpt lat="45.56646178554058" lon="11.18979139156993"><ele>778.0</ele><time>2026-04-06T09:35:16.999Z</time></trkpt><trkpt lat="45.56651476664597" lon="11.189736958803065"><ele>778.0</ele><time>2026-04-06T09:35:40.001Z</time></trkpt><trkpt lat="45.56655422944199" lon="11.189661322371853"><ele>778.0</ele><time>2026-04-06T09:35:51Z</time></trkpt><trkpt lat="45.56657577502407" lon="11.189575809553663"><ele>778.0</ele><time>2026-04-06T09:35:55Z</time></trkpt><trkpt lat="45.566617259339985" lon="11.189506857170295"><ele>778.0</ele><time>2026-04-06T09:36:09Z</time></trkpt><trkpt lat="45.56661805533567" lon="11.189396957149828"><ele>778.0</ele><time>2026-04-06T09:36:16Z</time></trkpt></trkseg></trk></gpx>